sensor_id;sensor_type;location;lat;lon;timestamp;P1;durP1;ratioP1;P2;durP2;ratioP2
84121;SDS011;74217;51.106;17.084;2023-12-04T00:00:00;32.92;;;19.38;;
84121;SDS011;74217;51.106;17.084;2023-12-04T00:03:05;32.28;;;17.17;;
84121;SDS011;74217;51.106;17.084;2023-12-04T00:05:50;39.15;;;21.05;;
84121;SDS011;74217;51.106;17.084;2023-12-04T00:08:35;38.65;;;20.02;;
84121;SDS011;74217;51.106;17.084;2023-12-04T00:11:21;37.28;;;19.85;;
84121;SDS011;74217;51.106;17.084;2023-12-04T00:14:05;41.45;;;19.75;;
84121;SDS011;74217;51.106;17.084;2023-12-04T00:16:50;35.17;;;18.98;;
84121;SDS011;74217;51.106;17.084;2023-12-04T00:19:35;38.22;;;20.88;;
84121;SDS011;74217;51.106;17.084;2023-12-04T00:22:19;46.63;;;19.73;;
84121;SDS011;74217;51.106;17.084;2023-12-04T00:25:05;38.30;;;18.40;;
84121;SDS011;74217;51.106;17.084;2023-12-04T00:27:50;46.55;;;22.33;;
84121;SDS011;74217;51.106;17.084;2023-12-04T00:30:35;35.75;;;18.27;;
84121;SDS011;74217;51.106;17.084;2023-12-04T00:33:20;35.38;;;19.48;;
84121;SDS011;74217;51.106;17.084;2023-12-04T00:36:05;37.80;;;18.73;;
84121;SDS011;74217;51.106;17.084;2023-12-04T00:38:50;31.98;;;18.48;;
84121;SDS011;74217;51.106;17.084;2023-12-04T00:41:35;47.28;;;18.85;;
84121;SDS011;74217;51.106;17.084;2023-12-04T00:44:19;40.15;;;19.63;;
84121;SDS011;74217;51.106;17.084;2023-12-04T00:47:04;38.35;;;18.98;;
84121;SDS011;74217;51.106;17.084;2023-12-04T00:49:48;33.67;;;18.30;;
84121;SDS011;74217;51.106;17.084;2023-12-04T00:52:33;33.42;;;19.10;;
84121;SDS011;74217;51.106;17.084;2023-12-04T00:55:17;35.50;;;18.55;;
84121;SDS011;74217;51.106;17.084;2023-12-04T00:58:03;37.55;;;17.63;;
84121;SDS011;74217;51.106;17.084;2023-12-04T01:00:47;35.58;;;18.83;;
84121;SDS011;74217;51.106;17.084;2023-12-04T01:03:33;32.15;;;16.88;;
84121;SDS011;74217;51.106;17.084;2023-12-04T01:06:21;41.35;;;19.80;;
84121;SDS011;74217;51.106;17.084;2023-12-04T01:09:09;37.08;;;19.35;;
84121;SDS011;74217;51.106;17.084;2023-12-04T01:11:54;38.38;;;18.73;;
84121;SDS011;74217;51.106;17.084;2023-12-04T01:14:39;31.83;;;18.25;;
84121;SDS011;74217;51.106;17.084;2023-12-04T01:17:23;39.53;;;20.42;;
84121;SDS011;74217;51.106;17.084;2023-12-04T01:20:08;39.55;;;19.65;;
84121;SDS011;74217;51.106;17.084;2023-12-04T01:22:53;36.60;;;17.60;;
84121;SDS011;74217;51.106;17.084;2023-12-04T01:25:38;37.97;;;19.67;;
84121;SDS011;74217;51.106;17.084;2023-12-04T01:28:23;32.72;;;19.75;;
84121;SDS011;74217;51.106;17.084;2023-12-04T01:31:08;34.50;;;19.33;;
84121;SDS011;74217;51.106;17.084;2023-12-04T01:33:52;34.15;;;19.15;;
84121;SDS011;74217;51.106;17.084;2023-12-04T01:36:39;35.95;;;18.48;;
84121;SDS011;74217;51.106;17.084;2023-12-04T01:39:25;30.48;;;17.42;;
84121;SDS011;74217;51.106;17.084;2023-12-04T01:42:10;37.35;;;19.95;;
84121;SDS011;74217;51.106;17.084;2023-12-04T01:44:55;35.78;;;19.60;;
84121;SDS011;74217;51.106;17.084;2023-12-04T01:47:40;28.42;;;18.55;;
84121;SDS011;74217;51.106;17.084;2023-12-04T01:50:27;33.00;;;16.27;;
84121;SDS011;74217;51.106;17.084;2023-12-04T01:53:14;30.30;;;18.30;;
84121;SDS011;74217;51.106;17.084;2023-12-04T01:56:01;30.23;;;19.35;;
84121;SDS011;74217;51.106;17.084;2023-12-04T01:58:45;33.10;;;19.33;;
84121;SDS011;74217;51.106;17.084;2023-12-04T02:01:30;28.85;;;18.73;;
84121;SDS011;74217;51.106;17.084;2023-12-04T02:04:16;31.48;;;18.73;;
84121;SDS011;74217;51.106;17.084;2023-12-04T02:07:00;35.40;;;20.33;;
84121;SDS011;74217;51.106;17.084;2023-12-04T02:09:45;30.85;;;19.52;;
84121;SDS011;74217;51.106;17.084;2023-12-04T02:12:30;32.22;;;18.40;;
84121;SDS011;74217;51.106;17.084;2023-12-04T02:15:15;39.60;;;21.08;;
84121;SDS011;74217;51.106;17.084;2023-12-04T02:17:59;27.88;;;19.25;;
84121;SDS011;74217;51.106;17.084;2023-12-04T02:20:45;35.17;;;20.48;;
84121;SDS011;74217;51.106;17.084;2023-12-04T02:23:29;32.22;;;21.45;;
84121;SDS011;74217;51.106;17.084;2023-12-04T02:26:16;37.92;;;20.60;;
84121;SDS011;74217;51.106;17.084;2023-12-04T02:29:05;39.05;;;20.27;;
84121;SDS011;74217;51.106;17.084;2023-12-04T02:31:56;31.23;;;18.13;;
84121;SDS011;74217;51.106;17.084;2023-12-04T02:34:42;33.50;;;19.95;;
84121;SDS011;74217;51.106;17.084;2023-12-04T02:37:30;34.83;;;16.65;;
84121;SDS011;74217;51.106;17.084;2023-12-04T02:40:17;25.40;;;17.85;;
84121;SDS011;74217;51.106;17.084;2023-12-04T02:43:02;34.90;;;20.48;;
84121;SDS011;74217;51.106;17.084;2023-12-04T02:45:46;29.65;;;18.15;;
84121;SDS011;74217;51.106;17.084;2023-12-04T02:48:31;31.27;;;19.98;;
84121;SDS011;74217;51.106;17.084;2023-12-04T02:51:16;33.05;;;20.27;;
84121;SDS011;74217;51.106;17.084;2023-12-04T02:54:01;34.58;;;22.80;;
84121;SDS011;74217;51.106;17.084;2023-12-04T02:56:45;36.17;;;20.55;;
84121;SDS011;74217;51.106;17.084;2023-12-04T02:59:30;31.85;;;20.35;;
84121;SDS011;74217;51.106;17.084;2023-12-04T03:02:15;38.95;;;22.23;;
84121;SDS011;74217;51.106;17.084;2023-12-04T03:04:59;34.55;;;21.55;;
84121;SDS011;74217;51.106;17.084;2023-12-04T03:07:44;33.20;;;20.20;;
84121;SDS011;74217;51.106;17.084;2023-12-04T03:10:30;35.08;;;20.63;;
84121;SDS011;74217;51.106;17.084;2023-12-04T03:13:14;37.65;;;19.77;;
84121;SDS011;74217;51.106;17.084;2023-12-04T03:16:00;37.50;;;23.63;;
84121;SDS011;74217;51.106;17.084;2023-12-04T03:18:44;36.72;;;20.92;;
84121;SDS011;74217;51.106;17.084;2023-12-04T03:21:30;37.72;;;20.95;;
84121;SDS011;74217;51.106;17.084;2023-12-04T03:24:14;32.85;;;17.75;;
84121;SDS011;74217;51.106;17.084;2023-12-04T03:26:59;37.25;;;22.40;;
84121;SDS011;74217;51.106;17.084;2023-12-04T03:29:43;30.52;;;20.52;;
84121;SDS011;74217;51.106;17.084;2023-12-04T03:32:28;44.83;;;21.92;;
84121;SDS011;74217;51.106;17.084;2023-12-04T03:35:13;37.67;;;18.58;;
84121;SDS011;74217;51.106;17.084;2023-12-04T03:37:58;42.40;;;21.02;;
84121;SDS011;74217;51.106;17.084;2023-12-04T03:40:43;36.20;;;23.25;;
84121;SDS011;74217;51.106;17.084;2023-12-04T03:43:28;36.50;;;20.63;;
84121;SDS011;74217;51.106;17.084;2023-12-04T03:46:13;33.03;;;23.77;;
84121;SDS011;74217;51.106;17.084;2023-12-04T03:48:59;32.17;;;19.13;;
84121;SDS011;74217;51.106;17.084;2023-12-04T03:51:43;35.35;;;19.27;;
84121;SDS011;74217;51.106;17.084;2023-12-04T03:54:28;36.83;;;19.10;;
84121;SDS011;74217;51.106;17.084;2023-12-04T03:57:13;33.97;;;19.98;;
84121;SDS011;74217;51.106;17.084;2023-12-04T03:59:58;29.65;;;17.27;;
84121;SDS011;74217;51.106;17.084;2023-12-04T04:02:42;35.05;;;22.23;;
84121;SDS011;74217;51.106;17.084;2023-12-04T04:05:28;35.42;;;21.90;;
84121;SDS011;74217;51.106;17.084;2023-12-04T04:08:12;39.10;;;21.65;;
84121;SDS011;74217;51.106;17.084;2023-12-04T04:10:57;43.80;;;22.85;;
84121;SDS011;74217;51.106;17.084;2023-12-04T04:13:41;42.35;;;24.40;;
84121;SDS011;74217;51.106;17.084;2023-12-04T04:16:26;35.63;;;22.73;;
84121;SDS011;74217;51.106;17.084;2023-12-04T04:19:10;38.83;;;22.10;;
84121;SDS011;74217;51.106;17.084;2023-12-04T04:21:55;38.50;;;22.48;;
84121;SDS011;74217;51.106;17.084;2023-12-04T04:24:39;43.88;;;22.40;;
84121;SDS011;74217;51.106;17.084;2023-12-04T04:27:24;32.42;;;20.90;;
84121;SDS011;74217;51.106;17.084;2023-12-04T04:30:08;44.20;;;23.13;;
84121;SDS011;74217;51.106;17.084;2023-12-04T04:32:53;28.55;;;19.58;;
84121;SDS011;74217;51.106;17.084;2023-12-04T04:35:38;35.28;;;22.23;;
84121;SDS011;74217;51.106;17.084;2023-12-04T04:38:22;39.50;;;22.92;;
84121;SDS011;74217;51.106;17.084;2023-12-04T04:41:07;37.13;;;20.90;;
84121;SDS011;74217;51.106;17.084;2023-12-04T04:43:58;33.45;;;20.10;;
84121;SDS011;74217;51.106;17.084;2023-12-04T04:46:42;36.35;;;21.27;;
84121;SDS011;74217;51.106;17.084;2023-12-04T04:49:27;44.65;;;25.73;;
84121;SDS011;74217;51.106;17.084;2023-12-04T04:52:11;42.72;;;22.98;;
84121;SDS011;74217;51.106;17.084;2023-12-04T04:54:56;41.38;;;25.02;;
84121;SDS011;74217;51.106;17.084;2023-12-04T04:57:40;46.05;;;25.80;;
84121;SDS011;74217;51.106;17.084;2023-12-04T05:00:25;36.10;;;23.38;;
84121;SDS011;74217;51.106;17.084;2023-12-04T05:03:09;39.45;;;24.88;;
84121;SDS011;74217;51.106;17.084;2023-12-04T05:05:54;41.72;;;20.48;;
84121;SDS011;74217;51.106;17.084;2023-12-04T05:08:38;41.13;;;21.65;;
84121;SDS011;74217;51.106;17.084;2023-12-04T05:11:23;41.58;;;23.15;;
84121;SDS011;74217;51.106;17.084;2023-12-04T05:14:08;39.70;;;21.40;;
84121;SDS011;74217;51.106;17.084;2023-12-04T05:16:52;45.38;;;21.55;;
84121;SDS011;74217;51.106;17.084;2023-12-04T05:19:37;41.78;;;24.60;;
84121;SDS011;74217;51.106;17.084;2023-12-04T05:22:21;44.00;;;22.90;;
84121;SDS011;74217;51.106;17.084;2023-12-04T05:25:06;40.85;;;23.17;;
84121;SDS011;74217;51.106;17.084;2023-12-04T05:27:51;44.03;;;22.02;;
84121;SDS011;74217;51.106;17.084;2023-12-04T05:30:36;42.47;;;21.73;;
84121;SDS011;74217;51.106;17.084;2023-12-04T05:33:21;53.00;;;28.90;;
84121;SDS011;74217;51.106;17.084;2023-12-04T05:36:05;43.65;;;25.08;;
84121;SDS011;74217;51.106;17.084;2023-12-04T05:38:51;49.55;;;24.92;;
84121;SDS011;74217;51.106;17.084;2023-12-04T05:41:37;36.55;;;21.02;;
84121;SDS011;74217;51.106;17.084;2023-12-04T05:44:22;46.03;;;23.73;;
84121;SDS011;74217;51.106;17.084;2023-12-04T05:47:06;40.30;;;26.63;;
84121;SDS011;74217;51.106;17.084;2023-12-04T05:49:52;40.78;;;21.52;;
84121;SDS011;74217;51.106;17.084;2023-12-04T05:52:36;43.03;;;22.63;;
84121;SDS011;74217;51.106;17.084;2023-12-04T05:55:21;45.08;;;23.05;;
84121;SDS011;74217;51.106;17.084;2023-12-04T05:58:05;43.55;;;24.00;;
84121;SDS011;74217;51.106;17.084;2023-12-04T06:00:50;47.95;;;22.90;;
84121;SDS011;74217;51.106;17.084;2023-12-04T06:03:34;41.38;;;23.20;;
84121;SDS011;74217;51.106;17.084;2023-12-04T06:06:19;39.30;;;21.52;;
84121;SDS011;74217;51.106;17.084;2023-12-04T06:09:03;33.22;;;21.88;;
84121;SDS011;74217;51.106;17.084;2023-12-04T06:11:48;41.25;;;22.80;;
84121;SDS011;74217;51.106;17.084;2023-12-04T06:14:32;39.05;;;22.17;;
84121;SDS011;74217;51.106;17.084;2023-12-04T06:17:17;47.72;;;23.63;;
84121;SDS011;74217;51.106;17.084;2023-12-04T06:20:01;38.08;;;20.75;;
84121;SDS011;74217;51.106;17.084;2023-12-04T06:22:46;32.60;;;19.77;;
84121;SDS011;74217;51.106;17.084;2023-12-04T06:25:31;34.42;;;19.40;;
84121;SDS011;74217;51.106;17.084;2023-12-04T06:28:16;35.05;;;20.08;;
84121;SDS011;74217;51.106;17.084;2023-12-04T06:31:01;36.53;;;21.85;;
84121;SDS011;74217;51.106;17.084;2023-12-04T06:33:46;39.38;;;21.20;;
84121;SDS011;74217;51.106;17.084;2023-12-04T06:36:31;31.67;;;20.98;;
84121;SDS011;74217;51.106;17.084;2023-12-04T06:39:22;30.73;;;19.88;;
84121;SDS011;74217;51.106;17.084;2023-12-04T06:42:09;32.95;;;22.15;;
84121;SDS011;74217;51.106;17.084;2023-12-04T06:44:56;36.20;;;20.48;;
84121;SDS011;74217;51.106;17.084;2023-12-04T06:47:40;32.65;;;19.02;;
84121;SDS011;74217;51.106;17.084;2023-12-04T06:50:28;35.65;;;19.73;;
84121;SDS011;74217;51.106;17.084;2023-12-04T06:53:12;33.33;;;19.80;;
84121;SDS011;74217;51.106;17.084;2023-12-04T06:55:57;33.70;;;19.85;;
84121;SDS011;74217;51.106;17.084;2023-12-04T06:58:41;38.03;;;21.00;;
84121;SDS011;74217;51.106;17.084;2023-12-04T07:01:26;35.97;;;20.55;;
84121;SDS011;74217;51.106;17.084;2023-12-04T07:04:10;42.03;;;22.52;;
84121;SDS011;74217;51.106;17.084;2023-12-04T07:06:55;38.50;;;21.60;;
84121;SDS011;74217;51.106;17.084;2023-12-04T07:09:41;37.83;;;23.45;;
84121;SDS011;74217;51.106;17.084;2023-12-04T07:12:26;31.48;;;21.65;;
84121;SDS011;74217;51.106;17.084;2023-12-04T07:15:11;32.67;;;20.48;;
84121;SDS011;74217;51.106;17.084;2023-12-04T07:17:56;33.05;;;22.10;;
84121;SDS011;74217;51.106;17.084;2023-12-04T07:20:40;35.45;;;21.88;;
84121;SDS011;74217;51.106;17.084;2023-12-04T07:23:25;37.33;;;23.38;;
84121;SDS011;74217;51.106;17.084;2023-12-04T07:26:09;45.25;;;24.92;;
84121;SDS011;74217;51.106;17.084;2023-12-04T07:28:55;43.38;;;26.33;;
84121;SDS011;74217;51.106;17.084;2023-12-04T07:31:40;38.35;;;22.15;;
84121;SDS011;74217;51.106;17.084;2023-12-04T07:34:25;40.83;;;22.25;;
84121;SDS011;74217;51.106;17.084;2023-12-04T07:37:10;34.85;;;20.42;;
84121;SDS011;74217;51.106;17.084;2023-12-04T07:39:56;36.00;;;22.08;;
84121;SDS011;74217;51.106;17.084;2023-12-04T07:42:41;39.42;;;26.58;;
84121;SDS011;74217;51.106;17.084;2023-12-04T07:45:27;40.10;;;25.35;;
84121;SDS011;74217;51.106;17.084;2023-12-04T07:48:13;41.50;;;23.15;;
84121;SDS011;74217;51.106;17.084;2023-12-04T07:50:57;34.90;;;20.55;;
84121;SDS011;74217;51.106;17.084;2023-12-04T07:53:42;38.17;;;21.83;;
84121;SDS011;74217;51.106;17.084;2023-12-04T07:56:27;35.60;;;21.65;;
84121;SDS011;74217;51.106;17.084;2023-12-04T07:59:11;37.90;;;23.10;;
84121;SDS011;74217;51.106;17.084;2023-12-04T08:01:56;43.78;;;24.77;;
84121;SDS011;74217;51.106;17.084;2023-12-04T08:04:41;37.58;;;25.13;;
84121;SDS011;74217;51.106;17.084;2023-12-04T08:07:25;46.17;;;21.40;;
84121;SDS011;74217;51.106;17.084;2023-12-04T08:10:10;35.53;;;22.13;;
84121;SDS011;74217;51.106;17.084;2023-12-04T08:12:55;35.30;;;22.48;;
84121;SDS011;74217;51.106;17.084;2023-12-04T08:15:40;43.75;;;25.17;;
84121;SDS011;74217;51.106;17.084;2023-12-04T08:18:25;36.15;;;21.48;;
84121;SDS011;74217;51.106;17.084;2023-12-04T08:21:10;40.83;;;21.23;;
84121;SDS011;74217;51.106;17.084;2023-12-04T08:23:55;34.85;;;20.88;;
84121;SDS011;74217;51.106;17.084;2023-12-04T08:26:40;41.38;;;22.58;;
84121;SDS011;74217;51.106;17.084;2023-12-04T08:29:25;32.75;;;21.33;;
84121;SDS011;74217;51.106;17.084;2023-12-04T08:32:10;35.78;;;20.33;;
84121;SDS011;74217;51.106;17.084;2023-12-04T08:34:54;36.78;;;20.45;;
84121;SDS011;74217;51.106;17.084;2023-12-04T08:37:39;36.58;;;21.67;;
84121;SDS011;74217;51.106;17.084;2023-12-04T08:40:24;35.95;;;19.23;;
84121;SDS011;74217;51.106;17.084;2023-12-04T08:43:09;35.92;;;23.10;;
84121;SDS011;74217;51.106;17.084;2023-12-04T08:45:53;37.80;;;23.30;;
84121;SDS011;74217;51.106;17.084;2023-12-04T08:48:42;40.92;;;22.95;;
84121;SDS011;74217;51.106;17.084;2023-12-04T08:51:27;38.10;;;20.13;;
84121;SDS011;74217;51.106;17.084;2023-12-04T08:54:12;37.83;;;19.55;;
84121;SDS011;74217;51.106;17.084;2023-12-04T08:56:57;33.30;;;21.48;;
84121;SDS011;74217;51.106;17.084;2023-12-04T08:59:42;33.50;;;20.27;;
84121;SDS011;74217;51.106;17.084;2023-12-04T09:02:26;38.05;;;19.08;;
84121;SDS011;74217;51.106;17.084;2023-12-04T09:05:11;34.63;;;22.60;;
84121;SDS011;74217;51.106;17.084;2023-12-04T09:07:57;35.90;;;21.42;;
84121;SDS011;74217;51.106;17.084;2023-12-04T09:10:41;33.63;;;18.75;;
84121;SDS011;74217;51.106;17.084;2023-12-04T09:13:26;29.77;;;18.17;;
84121;SDS011;74217;51.106;17.084;2023-12-04T09:16:11;32.75;;;18.95;;
84121;SDS011;74217;51.106;17.084;2023-12-04T09:18:55;33.92;;;18.33;;
84121;SDS011;74217;51.106;17.084;2023-12-04T09:21:40;36.33;;;18.75;;
84121;SDS011;74217;51.106;17.084;2023-12-04T09:24:25;29.15;;;17.85;;
84121;SDS011;74217;51.106;17.084;2023-12-04T09:27:11;36.88;;;19.02;;
84121;SDS011;74217;51.106;17.084;2023-12-04T09:29:56;35.20;;;19.33;;
84121;SDS011;74217;51.106;17.084;2023-12-04T09:32:41;34.42;;;19.50;;
84121;SDS011;74217;51.106;17.084;2023-12-04T09:35:25;34.53;;;21.85;;
84121;SDS011;74217;51.106;17.084;2023-12-04T09:38:10;30.60;;;21.77;;
84121;SDS011;74217;51.106;17.084;2023-12-04T09:40:56;32.03;;;17.23;;
84121;SDS011;74217;51.106;17.084;2023-12-04T09:43:43;26.30;;;17.45;;
84121;SDS011;74217;51.106;17.084;2023-12-04T09:46:29;31.95;;;17.70;;
84121;SDS011;74217;51.106;17.084;2023-12-04T09:49:14;34.30;;;20.02;;
84121;SDS011;74217;51.106;17.084;2023-12-04T09:51:59;33.63;;;22.40;;
84121;SDS011;74217;51.106;17.084;2023-12-04T09:54:44;32.22;;;17.83;;
84121;SDS011;74217;51.106;17.084;2023-12-04T09:57:29;33.55;;;16.92;;
84121;SDS011;74217;51.106;17.084;2023-12-04T10:00:15;31.00;;;18.88;;
84121;SDS011;74217;51.106;17.084;2023-12-04T10:03:00;28.27;;;16.48;;
84121;SDS011;74217;51.106;17.084;2023-12-04T10:05:46;33.58;;;19.05;;
84121;SDS011;74217;51.106;17.084;2023-12-04T10:08:31;31.08;;;17.60;;
84121;SDS011;74217;51.106;17.084;2023-12-04T10:11:15;33.42;;;19.67;;
84121;SDS011;74217;51.106;17.084;2023-12-04T10:14:00;27.90;;;16.70;;
84121;SDS011;74217;51.106;17.084;2023-12-04T10:16:45;28.15;;;17.45;;
84121;SDS011;74217;51.106;17.084;2023-12-04T10:19:30;29.92;;;20.25;;
84121;SDS011;74217;51.106;17.084;2023-12-04T10:22:14;32.72;;;18.40;;
84121;SDS011;74217;51.106;17.084;2023-12-04T10:24:59;28.80;;;16.02;;
84121;SDS011;74217;51.106;17.084;2023-12-04T10:28:07;30.30;;;20.52;;
84121;SDS011;74217;51.106;17.084;2023-12-04T10:30:53;32.90;;;20.20;;
84121;SDS011;74217;51.106;17.084;2023-12-04T10:33:38;31.23;;;17.75;;
84121;SDS011;74217;51.106;17.084;2023-12-04T10:36:25;33.72;;;19.25;;
84121;SDS011;74217;51.106;17.084;2023-12-04T10:39:10;33.33;;;20.23;;
84121;SDS011;74217;51.106;17.084;2023-12-04T10:42:01;34.45;;;20.02;;
84121;SDS011;74217;51.106;17.084;2023-12-04T10:44:46;35.35;;;21.52;;
84121;SDS011;74217;51.106;17.084;2023-12-04T10:47:31;25.42;;;17.27;;
84121;SDS011;74217;51.106;17.084;2023-12-04T10:50:18;35.03;;;20.92;;
84121;SDS011;74217;51.106;17.084;2023-12-04T10:53:10;36.05;;;20.90;;
84121;SDS011;74217;51.106;17.084;2023-12-04T10:55:56;31.65;;;18.58;;
84121;SDS011;74217;51.106;17.084;2023-12-04T10:58:47;33.47;;;20.08;;
84121;SDS011;74217;51.106;17.084;2023-12-04T11:01:34;30.92;;;18.85;;
84121;SDS011;74217;51.106;17.084;2023-12-04T11:04:19;35.30;;;21.85;;
84121;SDS011;74217;51.106;17.084;2023-12-04T11:07:05;37.97;;;22.20;;
84121;SDS011;74217;51.106;17.084;2023-12-04T11:09:52;36.85;;;20.02;;
84121;SDS011;74217;51.106;17.084;2023-12-04T11:12:39;40.70;;;19.75;;
84121;SDS011;74217;51.106;17.084;2023-12-04T11:15:29;38.92;;;22.10;;
84121;SDS011;74217;51.106;17.084;2023-12-04T11:18:20;40.22;;;20.40;;
84121;SDS011;74217;51.106;17.084;2023-12-04T11:21:08;34.78;;;19.08;;
84121;SDS011;74217;51.106;17.084;2023-12-04T11:23:55;36.15;;;20.75;;
84121;SDS011;74217;51.106;17.084;2023-12-04T11:26:42;39.90;;;20.77;;
84121;SDS011;74217;51.106;17.084;2023-12-04T11:29:27;38.10;;;21.88;;
84121;SDS011;74217;51.106;17.084;2023-12-04T11:32:16;35.88;;;21.88;;
84121;SDS011;74217;51.106;17.084;2023-12-04T11:35:01;41.70;;;23.50;;
84121;SDS011;74217;51.106;17.084;2023-12-04T11:37:47;41.88;;;23.75;;
84121;SDS011;74217;51.106;17.084;2023-12-04T11:40:31;35.63;;;21.55;;
84121;SDS011;74217;51.106;17.084;2023-12-04T11:43:26;40.45;;;20.52;;
84121;SDS011;74217;51.106;17.084;2023-12-04T11:46:11;41.17;;;21.58;;
84121;SDS011;74217;51.106;17.084;2023-12-04T11:52:10;43.22;;;22.65;;
84121;SDS011;74217;51.106;17.084;2023-12-04T11:54:55;39.80;;;22.83;;
84121;SDS011;74217;51.106;17.084;2023-12-04T11:57:44;39.97;;;20.10;;
84121;SDS011;74217;51.106;17.084;2023-12-04T12:00:29;34.50;;;22.27;;
84121;SDS011;74217;51.106;17.084;2023-12-04T12:03:14;38.50;;;21.90;;
84121;SDS011;74217;51.106;17.084;2023-12-04T12:06:00;34.30;;;20.77;;
84121;SDS011;74217;51.106;17.084;2023-12-04T12:08:44;38.80;;;22.08;;
84121;SDS011;74217;51.106;17.084;2023-12-04T12:11:29;35.30;;;23.05;;
84121;SDS011;74217;51.106;17.084;2023-12-04T12:14:14;34.40;;;20.67;;
84121;SDS011;74217;51.106;17.084;2023-12-04T12:16:59;32.03;;;20.25;;
84121;SDS011;74217;51.106;17.084;2023-12-04T12:19:45;36.78;;;21.30;;
84121;SDS011;74217;51.106;17.084;2023-12-04T12:22:29;39.97;;;20.25;;
84121;SDS011;74217;51.106;17.084;2023-12-04T12:25:14;36.55;;;20.65;;
84121;SDS011;74217;51.106;17.084;2023-12-04T12:28:02;33.53;;;19.75;;
84121;SDS011;74217;51.106;17.084;2023-12-04T12:30:47;32.47;;;19.20;;
84121;SDS011;74217;51.106;17.084;2023-12-04T12:33:33;31.92;;;18.23;;
84121;SDS011;74217;51.106;17.084;2023-12-04T12:36:17;35.80;;;20.42;;
84121;SDS011;74217;51.106;17.084;2023-12-04T12:39:02;37.85;;;21.08;;
84121;SDS011;74217;51.106;17.084;2023-12-04T12:41:52;33.60;;;20.85;;
84121;SDS011;74217;51.106;17.084;2023-12-04T12:44:38;34.85;;;21.80;;
84121;SDS011;74217;51.106;17.084;2023-12-04T12:47:24;39.72;;;22.13;;
84121;SDS011;74217;51.106;17.084;2023-12-04T12:50:09;34.55;;;20.67;;
84121;SDS011;74217;51.106;17.084;2023-12-04T12:52:57;34.20;;;20.70;;
84121;SDS011;74217;51.106;17.084;2023-12-04T12:55:41;39.17;;;22.48;;
84121;SDS011;74217;51.106;17.084;2023-12-04T12:58:27;37.38;;;21.60;;
84121;SDS011;74217;51.106;17.084;2023-12-04T13:01:12;42.60;;;22.05;;
84121;SDS011;74217;51.106;17.084;2023-12-04T13:03:57;38.03;;;21.90;;
84121;SDS011;74217;51.106;17.084;2023-12-04T13:06:42;39.47;;;21.05;;
84121;SDS011;74217;51.106;17.084;2023-12-04T13:09:27;37.08;;;21.58;;
84121;SDS011;74217;51.106;17.084;2023-12-04T13:12:11;35.38;;;22.27;;
84121;SDS011;74217;51.106;17.084;2023-12-04T13:14:56;40.17;;;21.58;;
84121;SDS011;74217;51.106;17.084;2023-12-04T13:17:41;38.83;;;22.25;;
84121;SDS011;74217;51.106;17.084;2023-12-04T13:20:26;41.08;;;23.08;;
84121;SDS011;74217;51.106;17.084;2023-12-04T13:23:11;42.03;;;22.38;;
84121;SDS011;74217;51.106;17.084;2023-12-04T13:25:55;38.88;;;25.17;;
84121;SDS011;74217;51.106;17.084;2023-12-04T13:28:40;48.20;;;29.13;;
84121;SDS011;74217;51.106;17.084;2023-12-04T13:31:24;46.83;;;24.05;;
84121;SDS011;74217;51.106;17.084;2023-12-04T13:34:09;44.08;;;24.88;;
84121;SDS011;74217;51.106;17.084;2023-12-04T13:36:55;50.10;;;25.23;;
84121;SDS011;74217;51.106;17.084;2023-12-04T13:39:40;45.38;;;25.38;;
84121;SDS011;74217;51.106;17.084;2023-12-04T13:42:41;50.58;;;26.88;;
84121;SDS011;74217;51.106;17.084;2023-12-04T13:45:45;45.08;;;24.52;;
84121;SDS011;74217;51.106;17.084;2023-12-04T13:48:30;49.65;;;25.00;;
84121;SDS011;74217;51.106;17.084;2023-12-04T13:51:14;50.67;;;28.80;;
84121;SDS011;74217;51.106;17.084;2023-12-04T13:53:59;46.85;;;25.88;;
84121;SDS011;74217;51.106;17.084;2023-12-04T13:56:53;44.17;;;25.98;;
84121;SDS011;74217;51.106;17.084;2023-12-04T13:59:38;45.45;;;26.05;;
84121;SDS011;74217;51.106;17.084;2023-12-04T14:02:23;45.58;;;27.10;;
84121;SDS011;74217;51.106;17.084;2023-12-04T14:05:08;51.83;;;27.55;;
84121;SDS011;74217;51.106;17.084;2023-12-04T14:07:53;47.35;;;22.90;;
84121;SDS011;74217;51.106;17.084;2023-12-04T14:10:37;45.95;;;26.00;;
84121;SDS011;74217;51.106;17.084;2023-12-04T14:13:22;48.40;;;26.27;;
84121;SDS011;74217;51.106;17.084;2023-12-04T14:16:06;43.25;;;25.05;;
84121;SDS011;74217;51.106;17.084;2023-12-04T14:18:51;48.70;;;27.13;;
84121;SDS011;74217;51.106;17.084;2023-12-04T14:21:36;49.60;;;27.58;;
84121;SDS011;74217;51.106;17.084;2023-12-04T14:24:21;47.28;;;26.58;;
84121;SDS011;74217;51.106;17.084;2023-12-04T14:27:05;53.63;;;29.58;;
84121;SDS011;74217;51.106;17.084;2023-12-04T14:29:50;49.88;;;24.63;;
84121;SDS011;74217;51.106;17.084;2023-12-04T14:32:35;44.03;;;25.83;;
84121;SDS011;74217;51.106;17.084;2023-12-04T14:35:20;47.35;;;27.25;;
84121;SDS011;74217;51.106;17.084;2023-12-04T14:38:05;52.40;;;28.38;;
84121;SDS011;74217;51.106;17.084;2023-12-04T14:40:52;52.15;;;28.48;;
84121;SDS011;74217;51.106;17.084;2023-12-04T14:43:36;49.08;;;27.40;;
84121;SDS011;74217;51.106;17.084;2023-12-04T14:46:22;54.60;;;27.25;;
84121;SDS011;74217;51.106;17.084;2023-12-04T14:49:07;46.03;;;27.95;;
84121;SDS011;74217;51.106;17.084;2023-12-04T14:51:52;53.22;;;26.05;;
84121;SDS011;74217;51.106;17.084;2023-12-04T14:54:37;50.95;;;28.83;;
84121;SDS011;74217;51.106;17.084;2023-12-04T14:57:56;49.30;;;27.58;;
84121;SDS011;74217;51.106;17.084;2023-12-04T15:00:59;48.45;;;26.23;;
84121;SDS011;74217;51.106;17.084;2023-12-04T15:04:03;43.08;;;23.98;;
84121;SDS011;74217;51.106;17.084;2023-12-04T15:07:06;51.08;;;29.75;;
84121;SDS011;74217;51.106;17.084;2023-12-04T15:10:10;56.45;;;28.00;;
84121;SDS011;74217;51.106;17.084;2023-12-04T15:12:57;49.85;;;28.00;;
84121;SDS011;74217;51.106;17.084;2023-12-04T15:15:45;55.75;;;29.17;;
84121;SDS011;74217;51.106;17.084;2023-12-04T15:18:48;49.33;;;27.17;;
84121;SDS011;74217;51.106;17.084;2023-12-04T15:21:45;51.22;;;27.20;;
84121;SDS011;74217;51.106;17.084;2023-12-04T15:24:29;59.97;;;29.15;;
84121;SDS011;74217;51.106;17.084;2023-12-04T15:27:14;56.55;;;29.60;;
84121;SDS011;74217;51.106;17.084;2023-12-04T15:29:58;50.05;;;28.13;;
84121;SDS011;74217;51.106;17.084;2023-12-04T15:32:43;50.85;;;29.02;;
84121;SDS011;74217;51.106;17.084;2023-12-04T15:35:28;55.60;;;28.92;;
84121;SDS011;74217;51.106;17.084;2023-12-04T15:38:12;52.25;;;27.58;;
84121;SDS011;74217;51.106;17.084;2023-12-04T15:40:57;49.45;;;27.60;;
84121;SDS011;74217;51.106;17.084;2023-12-04T15:43:42;48.85;;;27.50;;
84121;SDS011;74217;51.106;17.084;2023-12-04T15:46:28;49.70;;;32.85;;
84121;SDS011;74217;51.106;17.084;2023-12-04T15:49:14;48.22;;;30.25;;
84121;SDS011;74217;51.106;17.084;2023-12-04T15:51:58;48.88;;;27.60;;
84121;SDS011;74217;51.106;17.084;2023-12-04T15:54:43;45.00;;;26.85;;
84121;SDS011;74217;51.106;17.084;2023-12-04T15:57:27;49.72;;;28.70;;